createdAt,value
2019-05-17T00:00:16.668Z,99986.25
2019-05-17T00:03:02.567Z,99977.95
2019-05-17T00:05:48.852Z,99980.09
2019-05-17T00:08:38.072Z,99978.55
2019-05-17T00:11:22.706Z,99968.15
2019-05-17T00:14:09.072Z,99962.79
2019-05-17T00:16:57.098Z,99967.09
2019-05-17T00:19:42.839Z,99958.85
2019-05-17T00:22:29.073Z,99951.44
2019-05-17T00:25:16.748Z,99951.52
2019-05-17T00:28:03.017Z,99951.15
2019-05-17T00:30:49.251Z,99944.67
2019-05-17T00:33:36.699Z,99941.33
2019-05-17T00:36:23.217Z,99941.30
2019-05-17T00:39:09.192Z,99933.27
2019-05-17T00:41:57.288Z,99936.59
2019-05-17T00:44:43.642Z,99923.89
2019-05-17T00:47:29.961Z,99920.67
2019-05-17T00:50:17.049Z,99923.63
2019-05-17T00:53:03.807Z,99916.50
2019-05-17T00:55:50.021Z,99911.30
2019-05-17T00:58:37.077Z,99912.02
2019-05-17T01:01:23.781Z,99912.42
2019-05-17T01:04:10.196Z,99911.75
2019-05-17T01:06:56.419Z,99909.65
2019-05-17T01:09:42.277Z,99910.70
2019-05-17T01:12:28.532Z,99908.97
2019-05-17T01:15:16.862Z,99901.39
2019-05-17T01:18:03.421Z,99899.78
2019-05-17T01:20:49.757Z,99889.82
2019-05-17T01:23:36.350Z,99897.23
2019-05-17T01:26:22.497Z,99883.78
2019-05-17T01:29:08.677Z,99889.14
2019-05-17T01:31:57.036Z,99886.86
2019-05-17T01:34:42.992Z,99885.32
2019-05-17T01:37:29.366Z,99879.17
2019-05-17T01:40:17.548Z,99878.58
2019-05-17T01:43:03.776Z,99883.26
2019-05-17T01:45:50.116Z,99876.63
2019-05-17T01:48:36.684Z,99880.64
2019-05-17T01:51:22.971Z,99879.10
2019-05-17T01:54:09.361Z,99880.48
2019-05-17T01:56:56.662Z,99878.39
2019-05-17T01:59:43.072Z,99875.20
2019-05-17T02:02:36.515Z,99864.94
2019-05-17T02:05:22.601Z,99868.27
2019-05-17T02:08:08.676Z,99868.61
2019-05-17T02:10:57.218Z,99869.92
2019-05-17T02:13:43.032Z,99862.91
2019-05-17T02:16:29.111Z,99858.41
2019-05-17T02:19:17.280Z,99863.40
2019-05-17T02:22:02.824Z,99860.62
2019-05-17T02:24:48.958Z,99862.72
2019-05-17T02:27:40.899Z,99864.07
2019-05-17T02:30:23.722Z,99863.28
2019-05-17T02:33:12.645Z,99857.21
2019-05-17T02:35:57.929Z,99851.59
2019-05-17T02:38:43.958Z,99852.78
2019-05-17T02:41:33.046Z,99847.02
2019-05-17T02:44:18.282Z,99847.13
2019-05-17T02:47:04.561Z,99840.73
2019-05-17T02:49:52.559Z,99837.77
2019-05-17T02:52:38.615Z,99842.64
2019-05-17T02:55:24.829Z,99839.64
2019-05-17T02:58:12.806Z,99836.76
2019-05-17T03:00:59.166Z,99840.20
2019-05-17T03:03:45.392Z,99836.16
2019-05-17T03:06:32.878Z,99840.09
2019-05-17T03:09:18.952Z,99838.18
2019-05-17T03:12:05.194Z,99837.66
2019-05-17T03:14:52.884Z,99834.73
2019-05-17T03:17:42.934Z,99834.88
2019-05-17T03:20:27.493Z,99841.92
2019-05-17T03:23:13.744Z,99840.39
2019-05-17T03:26:03.172Z,99839.75
2019-05-17T03:28:47.924Z,99832.37
2019-05-17T03:31:42.343Z,99834.98
2019-05-17T03:34:26.267Z,99837.61
2019-05-17T03:37:15.596Z,99828.84
2019-05-17T03:39:58.551Z,99835.77
2019-05-17T03:42:45.119Z,99825.39
2019-05-17T03:45:34.000Z,99821.72
2019-05-17T03:48:22.166Z,99823.22
2019-05-17T03:51:08.284Z,99822.34
2019-05-17T03:53:54.384Z,99831.35
2019-05-17T03:56:42.747Z,99820.73
2019-05-17T03:59:28.296Z,99821.30
2019-05-17T04:02:14.661Z,99818.80
2019-05-17T04:05:03.927Z,99817.97
2019-05-17T04:07:48.975Z,99817.79
2019-05-17T04:10:35.111Z,99822.92
2019-05-17T04:13:23.534Z,99820.28
2019-05-17T04:16:13.558Z,99812.23
2019-05-17T04:18:57.910Z,99811.90
2019-05-17T04:21:43.936Z,99815.19
2019-05-17T04:24:32.483Z,99815.03
2019-05-17T04:27:18.499Z,99818.59
2019-05-17T04:30:04.732Z,99811.00
2019-05-17T04:32:52.630Z,99808.70
2019-05-17T04:35:39.072Z,99808.48
2019-05-17T04:38:25.171Z,99805.03
2019-05-17T04:41:13.290Z,99808.55
2019-05-17T04:44:02.409Z,99800.55
2019-05-17T04:46:47.918Z,99802.63
2019-05-17T04:49:33.937Z,99798.48
2019-05-17T04:52:22.811Z,99794.03
2019-05-17T04:55:08.532Z,99793.82
2019-05-17T04:57:55.122Z,99789.46
2019-05-17T05:00:43.107Z,99786.05
2019-05-17T05:03:32.414Z,99788.09
2019-05-17T05:06:17.172Z,99792.34
2019-05-17T05:09:05.590Z,99796.22
2019-05-17T05:12:00.401Z,99796.70
2019-05-17T05:14:39.807Z,99797.98
2019-05-17T05:17:25.887Z,99794.91
2019-05-17T05:20:13.098Z,99800.28
2019-05-17T05:23:02.686Z,99795.23
2019-05-17T05:25:48.327Z,99795.02
2019-05-17T05:28:34.560Z,99794.09
2019-05-17T05:31:22.636Z,99794.66
2019-05-17T05:34:08.852Z,99792.23
2019-05-17T05:36:55.247Z,99789.72
2019-05-17T05:39:41.502Z,99793.48
2019-05-17T05:42:27.792Z,99787.75
2019-05-17T05:45:13.927Z,99792.61
2019-05-17T05:48:01.877Z,99798.73
2019-05-17T05:50:48.142Z,99791.64
2019-05-17T05:53:34.366Z,99790.77
2019-05-17T05:56:21.965Z,99794.11
2019-05-17T05:59:08.229Z,99797.55
2019-05-17T06:01:54.327Z,99798.09
2019-05-17T06:04:42.375Z,99788.03
2019-05-17T06:07:28.799Z,99783.60
2019-05-17T06:10:16.577Z,99787.60
2019-05-17T06:13:03.314Z,99793.79
2019-05-17T06:15:51.627Z,99791.70
2019-05-17T06:18:37.602Z,99798.00
2019-05-17T06:21:23.672Z,99787.48
2019-05-17T06:24:11.907Z,99786.67
2019-05-17T06:26:58.106Z,99780.89
2019-05-17T06:29:44.346Z,99776.06
2019-05-17T06:32:31.668Z,99776.83
2019-05-17T06:35:18.327Z,99783.59
2019-05-17T06:38:04.611Z,99781.25
2019-05-17T06:40:52.360Z,99776.48
2019-05-17T06:43:38.715Z,99776.58
2019-05-17T06:46:24.711Z,99783.44
2019-05-17T06:49:11.753Z,99775.61
2019-05-17T06:51:58.056Z,99780.97
2019-05-17T06:54:44.272Z,99772.47
2019-05-17T06:57:32.573Z,99772.14
2019-05-17T07:00:23.500Z,99769.06
2019-05-17T07:03:09.400Z,99765.45
2019-05-17T07:05:56.981Z,99765.01
2019-05-17T07:08:43.312Z,99763.90
2019-05-17T07:11:30.368Z,99768.54
2019-05-17T07:14:16.746Z,99764.10
2019-05-17T07:17:03.019Z,99764.15
2019-05-17T07:19:50.747Z,99768.30
2019-05-17T07:22:40.457Z,99762.79
2019-05-17T07:25:25.627Z,99754.22
2019-05-17T07:28:11.677Z,99761.14
2019-05-17T07:30:59.622Z,99763.05
2019-05-17T07:33:45.911Z,99748.02
2019-05-17T07:36:32.946Z,99765.22
2019-05-17T07:39:20.438Z,99746.29
2019-05-17T07:42:06.587Z,99740.78
2019-05-17T07:44:52.781Z,99743.00
2019-05-17T07:47:40.477Z,99731.58
2019-05-17T07:50:29.198Z,99740.94
2019-05-17T07:53:15.331Z,99733.98
2019-05-17T07:56:01.439Z,99731.15
2019-05-17T07:58:49.502Z,99736.50
2019-05-17T08:01:35.791Z,99732.47
2019-05-17T08:04:21.951Z,99731.69
2019-05-17T08:07:10.845Z,99724.84
2019-05-17T08:09:56.595Z,99728.33
2019-05-17T08:12:50.623Z,99725.41
2019-05-17T08:15:40.572Z,99728.73
2019-05-17T08:18:29.462Z,99715.55
2019-05-17T08:21:16.771Z,99725.01
2019-05-17T08:24:03.097Z,99714.36
2019-05-17T08:26:51.217Z,99707.20
2019-05-17T08:29:37.388Z,99709.70
2019-05-17T08:32:23.528Z,99699.16
2019-05-17T08:35:11.231Z,99699.80
2019-05-17T08:38:00.354Z,99694.55
2019-05-17T08:40:45.735Z,99688.14
2019-05-17T08:43:42.516Z,99698.05
2019-05-17T08:46:20.221Z,99701.75
2019-05-17T08:49:06.253Z,99700.30
2019-05-17T08:51:52.307Z,99708.42
2019-05-17T08:54:42.648Z,99697.41
2019-05-17T08:57:26.355Z,99695.48
2019-05-17T09:00:12.750Z,99703.39
2019-05-17T09:03:00.071Z,99693.15
2019-05-17T09:05:46.429Z,99693.51
2019-05-17T09:08:32.686Z,99697.17
2019-05-17T09:11:19.695Z,99703.63
2019-05-17T09:14:06.027Z,99689.97
2019-05-17T09:16:52.711Z,99688.20
2019-05-17T09:19:39.489Z,99696.61
2019-05-17T09:22:26.162Z,99689.40
2019-05-17T09:25:18.467Z,99693.03
2019-05-17T09:28:00.785Z,99683.80
2019-05-17T09:30:46.892Z,99678.59
2019-05-17T09:33:33.070Z,99673.44
2019-05-17T09:36:20.457Z,99691.27
2019-05-17T09:39:09.461Z,99691.41
2019-05-17T09:41:56.256Z,99677.97
2019-05-17T09:44:49.671Z,99678.92
2019-05-17T09:47:36.344Z,99670.75
2019-05-17T09:50:22.417Z,99667.77
2019-05-17T09:53:10.821Z,99671.72
2019-05-17T09:55:56.927Z,99667.70
2019-05-17T09:58:43.356Z,99659.58
2019-05-17T10:01:30.342Z,99658.06
2019-05-17T10:04:16.956Z,99648.56
2019-05-17T10:07:03.206Z,99657.83
2019-05-17T10:09:50.314Z,99651.92
2019-05-17T10:12:36.755Z,99654.48
2019-05-17T10:15:25.163Z,99635.31
2019-05-17T10:18:11.590Z,99658.94
2019-05-17T10:21:05.302Z,99651.03
2019-05-17T10:23:51.619Z,99644.10
2019-05-17T10:26:37.671Z,99651.88
2019-05-17T10:29:23.487Z,99648.85
2019-05-17T10:32:10.459Z,99647.38
2019-05-17T10:35:02.477Z,99647.17
2019-05-17T10:37:52.068Z,99646.03
2019-05-17T10:41:10.104Z,99636.08
2019-05-17T10:43:59.439Z,99634.16
2019-05-17T10:46:45.800Z,99644.55
2019-05-17T10:49:34.168Z,99645.65
2019-05-17T10:52:29.973Z,99633.66
2019-05-17T10:55:20.006Z,99637.45
2019-05-17T10:58:10.022Z,99631.55
2019-05-17T11:04:16.106Z,99642.30
2019-05-17T11:07:02.431Z,99633.70
2019-05-17T11:09:50.910Z,99634.85
2019-05-17T11:12:45.565Z,99627.92
2019-05-17T11:15:31.842Z,99629.91
2019-05-17T11:18:19.473Z,99625.61
2019-05-17T11:21:08.614Z,99626.92
2019-05-17T11:24:05.757Z,99626.92
2019-05-17T11:26:51.996Z,99631.88
2019-05-17T11:29:46.977Z,99626.70
2019-05-17T11:32:33.342Z,99609.66
2019-05-17T11:35:27.467Z,99617.48
2019-05-17T11:47:19.326Z,99641.63
2019-05-17T11:51:05.517Z,99633.38
2019-05-17T11:58:48.316Z,99628.89
2019-05-17T12:01:36.416Z,99610.19
2019-05-17T12:04:56.897Z,99608.05
2019-05-17T12:07:44.452Z,99615.61
2019-05-17T12:10:31.143Z,99614.59
2019-05-17T12:13:19.030Z,99600.38
2019-05-17T12:16:06.190Z,99612.00
2019-05-17T12:18:57.582Z,99620.45
2019-05-17T12:21:44.231Z,99612.83
2019-05-17T12:24:31.438Z,99615.03
2019-05-17T12:27:17.669Z,99614.05
2019-05-17T12:30:04.752Z,99606.06
2019-05-17T12:32:50.601Z,99609.22
2019-05-17T12:35:36.796Z,99608.07
2019-05-17T12:38:22.991Z,99611.00
2019-05-17T12:41:14.507Z,99615.91
2019-05-17T12:44:01.744Z,99599.49
2019-05-17T12:46:48.885Z,99604.75
2019-05-17T12:49:34.976Z,99601.00
2019-05-17T12:52:27.137Z,99604.66
2019-05-17T12:55:13.513Z,99594.73
2019-05-17T12:57:59.617Z,99599.80
2019-05-17T13:00:45.846Z,99590.11
2019-05-17T13:03:36.912Z,99591.08
2019-05-17T13:06:26.478Z,99594.98
2019-05-17T13:09:30.105Z,99583.67
2019-05-17T13:12:58.877Z,99575.58
2019-05-17T13:15:54.105Z,99591.11
2019-05-17T13:18:49.947Z,99592.80
2019-05-17T13:21:39.433Z,99591.94
2019-05-17T13:24:27.871Z,99586.39
2019-05-17T13:27:17.847Z,99585.88
2019-05-17T13:30:08.864Z,99586.81
2019-05-17T13:32:58.132Z,99578.36
2019-05-17T13:35:45.507Z,99580.48
2019-05-17T13:38:32.131Z,99573.91
2019-05-17T13:41:22.428Z,99571.14
2019-05-17T13:44:14.501Z,99571.17
2019-05-17T13:47:01.543Z,99571.08
2019-05-17T13:49:50.029Z,99574.66
2019-05-17T13:52:38.509Z,99580.59
2019-05-17T13:55:24.533Z,99583.69
2019-05-17T13:58:12.513Z,99574.92
2019-05-17T14:00:59.157Z,99582.98
2019-05-17T14:03:46.522Z,99581.42
2019-05-17T14:06:40.031Z,99583.45
2019-05-17T14:09:26.537Z,99588.91
2019-05-17T14:12:12.817Z,99575.83
2019-05-17T14:14:59.622Z,99580.06
2019-05-17T14:17:47.678Z,99575.12
2019-05-17T14:20:34.596Z,99577.58
2019-05-17T14:23:20.767Z,99585.55
2019-05-17T14:26:10.688Z,99577.53
2019-05-17T14:28:57.151Z,99570.81
2019-05-17T14:31:44.909Z,99568.27
2019-05-17T14:34:31.195Z,99574.98
2019-05-17T14:37:17.694Z,99569.53
2019-05-17T14:40:04.552Z,99560.54
2019-05-17T14:42:50.925Z,99558.94
2019-05-17T14:45:37.215Z,99549.39
2019-05-17T14:48:23.266Z,99553.23
2019-05-17T14:51:09.599Z,99553.49
2019-05-17T14:53:55.554Z,99551.48
2019-05-17T14:56:41.919Z,99545.44
2019-05-17T14:59:28.044Z,99550.59
2019-05-17T15:02:18.307Z,99554.84
2019-05-17T15:05:11.713Z,99544.56
2019-05-17T15:07:58.037Z,99543.13
2019-05-17T15:10:44.199Z,99553.18
2019-05-17T15:13:30.317Z,99549.94
2019-05-17T15:16:19.252Z,99555.59
2019-05-17T15:19:05.147Z,99543.65
2019-05-17T15:21:51.443Z,99533.77
2019-05-17T15:24:41.481Z,99543.22
2019-05-17T15:27:29.056Z,99546.31
2019-05-17T15:30:15.302Z,99544.86
2019-05-17T15:33:01.199Z,99534.19
2019-05-17T15:35:47.327Z,99540.65
2019-05-17T15:38:33.536Z,99538.48
2019-05-17T15:41:19.422Z,99531.11
2019-05-17T15:44:05.852Z,99521.20
2019-05-17T15:46:52.347Z,99521.37
2019-05-17T15:49:38.709Z,99515.78
2019-05-17T15:52:24.943Z,99519.30
2019-05-17T15:55:11.471Z,99524.33
2019-05-17T15:57:57.862Z,99525.26
2019-05-17T16:00:44.079Z,99517.11
2019-05-17T16:03:30.212Z,99512.27
2019-05-17T16:06:16.128Z,99503.34
2019-05-17T16:09:03.945Z,99506.58
2019-05-17T16:11:49.810Z,99508.08
2019-05-17T16:14:36.132Z,99508.62
2019-05-17T16:17:22.430Z,99499.52
2019-05-17T16:20:10.436Z,99491.91
2019-05-17T16:22:56.742Z,99497.94
2019-05-17T16:25:42.795Z,99493.68
2019-05-17T16:28:28.897Z,99504.53
2019-05-17T16:31:14.972Z,99501.52
2019-05-17T16:34:01.283Z,99504.70
2019-05-17T16:36:47.361Z,99513.09
2019-05-17T16:39:33.587Z,99511.84
2019-05-17T16:42:19.831Z,99512.93
2019-05-17T16:45:08.012Z,99504.45
2019-05-17T16:47:54.166Z,99509.20
2019-05-17T16:50:40.568Z,99504.67
2019-05-17T16:53:26.840Z,99507.17
2019-05-17T16:56:13.026Z,99503.88
2019-05-17T16:58:59.301Z,99502.99
2019-05-17T17:01:45.311Z,99494.98
2019-05-17T17:04:31.588Z,99503.40
2019-05-17T17:07:17.915Z,99506.22
2019-05-17T17:10:03.981Z,99503.61
2019-05-17T17:12:50.069Z,99505.19
2019-05-17T17:15:36.184Z,99501.59
2019-05-17T17:18:22.308Z,99504.30
2019-05-17T17:21:08.553Z,99504.48
2019-05-17T17:23:54.723Z,99503.27
2019-05-17T17:26:40.912Z,99506.20
2019-05-17T17:29:30.644Z,99501.28
2019-05-17T17:32:21.494Z,99499.78
2019-05-17T17:35:05.992Z,99501.44
2019-05-17T17:37:52.143Z,99497.46
2019-05-17T17:40:41.204Z,99496.33
2019-05-17T17:43:30.381Z,99498.33
2019-05-17T17:46:16.886Z,99498.52
2019-05-17T17:49:03.180Z,99490.67
2019-05-17T17:51:52.404Z,99500.52
2019-05-17T17:54:38.536Z,99498.84
2019-05-17T17:57:24.750Z,99490.95
2019-05-17T18:00:16.823Z,99493.03
2019-05-17T18:03:06.556Z,99495.84
2019-05-17T18:05:54.131Z,99499.05
2019-05-17T18:08:45.156Z,99499.61
2019-05-17T18:11:30.966Z,99499.06
2019-05-17T18:14:17.281Z,99495.63
2019-05-17T18:17:08.130Z,99497.62
2019-05-17T18:19:57.731Z,99491.16
2019-05-17T18:22:46.762Z,99493.86
2019-05-17T18:25:33.181Z,99501.48
2019-05-17T18:28:20.351Z,99503.50
2019-05-17T18:31:06.975Z,99501.56
2019-05-17T18:34:01.273Z,99499.29
2019-05-17T18:36:48.243Z,99499.00
2019-05-17T18:39:34.784Z,99502.64
2019-05-17T18:42:21.396Z,99502.98
2019-05-17T18:45:08.086Z,99506.81
2019-05-17T18:47:54.105Z,99506.15
2019-05-17T18:50:40.298Z,99510.30
2019-05-17T18:53:26.211Z,99506.68
2019-05-17T18:56:12.451Z,99508.81
2019-05-17T18:58:58.507Z,99514.45
2019-05-17T19:01:44.781Z,99509.98
2019-05-17T19:04:31.092Z,99509.34
2019-05-17T19:07:17.311Z,99509.52
2019-05-17T19:10:03.967Z,99508.86
2019-05-17T19:12:50.352Z,99515.63
2019-05-17T19:15:36.371Z,99515.13
2019-05-17T19:18:22.426Z,99515.30
2019-05-17T19:21:08.560Z,99521.88
2019-05-17T19:23:54.696Z,99520.58
2019-05-17T19:26:40.891Z,99521.03
2019-05-17T19:29:27.061Z,99517.88
2019-05-17T19:32:13.128Z,99523.13
2019-05-17T19:34:59.526Z,99519.78
2019-05-17T19:37:45.515Z,99518.27
2019-05-17T19:40:31.699Z,99523.98
2019-05-17T19:43:17.977Z,99520.95
2019-05-17T19:46:04.286Z,99526.55
2019-05-17T19:48:50.449Z,99522.59
2019-05-17T19:51:37.745Z,99527.68
2019-05-17T19:54:23.859Z,99526.55
2019-05-17T19:57:10.071Z,99528.82
2019-05-17T19:59:56.077Z,99525.83
2019-05-17T20:02:42.306Z,99530.23
2019-05-17T20:05:28.548Z,99531.05
2019-05-17T20:08:14.567Z,99527.41
2019-05-17T20:11:02.996Z,99529.05
2019-05-17T20:13:49.299Z,99532.38
2019-05-17T20:16:35.482Z,99526.55
2019-05-17T20:19:21.501Z,99530.50
2019-05-17T20:22:07.817Z,99532.31
2019-05-17T20:24:53.876Z,99530.00
2019-05-17T20:27:39.945Z,99534.37
2019-05-17T20:30:26.201Z,99528.37
2019-05-17T20:33:12.620Z,99527.42
2019-05-17T20:35:58.640Z,99528.92
2019-05-17T20:38:44.909Z,99522.20
2019-05-17T20:41:35.551Z,99520.23
2019-05-17T20:44:21.877Z,99520.13
2019-05-17T20:47:10.118Z,99522.34
2019-05-17T20:49:59.251Z,99519.76
2019-05-17T20:52:45.461Z,99524.27
2019-05-17T20:55:31.507Z,99514.36
2019-05-17T20:58:17.822Z,99515.82
2019-05-17T21:01:04.213Z,99518.59
2019-05-17T21:03:55.015Z,99514.92
2019-05-17T21:06:41.458Z,99508.16
2019-05-17T21:09:29.101Z,99512.29
2019-05-17T21:12:15.865Z,99511.16
2019-05-17T21:15:03.042Z,99509.19
2019-05-17T21:17:49.605Z,99506.66
2019-05-17T21:20:38.815Z,99512.78
2019-05-17T21:23:25.401Z,99509.37
2019-05-17T21:26:12.076Z,99508.97
2019-05-17T21:28:58.305Z,99511.56
2019-05-17T21:31:44.456Z,99507.33
2019-05-17T21:34:32.568Z,99506.02
2019-05-17T21:37:18.460Z,99513.61
2019-05-17T21:40:05.382Z,99506.02
2019-05-17T21:42:51.324Z,99512.47
2019-05-17T21:45:37.475Z,99508.73
2019-05-17T21:48:23.736Z,99505.15
2019-05-17T21:51:10.051Z,99500.52
2019-05-17T21:53:56.262Z,99501.30
2019-05-17T21:56:42.445Z,99508.69
2019-05-17T21:59:28.865Z,99502.05
2019-05-17T22:02:14.877Z,99504.06
2019-05-17T22:05:01.172Z,99500.02
2019-05-17T22:07:47.324Z,99494.30
2019-05-17T22:10:33.385Z,99498.08
2019-05-17T22:13:19.501Z,99496.81
2019-05-17T22:16:18.478Z,99496.31
2019-05-17T22:18:53.856Z,99495.20
2019-05-17T22:21:40.106Z,99502.47
2019-05-17T22:24:26.281Z,99494.89
2019-05-17T22:27:12.224Z,99491.94
2019-05-17T22:29:58.500Z,99490.91
2019-05-17T22:32:44.645Z,99488.36
2019-05-17T22:35:30.656Z,99488.72
2019-05-17T22:38:16.889Z,99479.50
2019-05-17T22:41:05.889Z,99488.03
2019-05-17T22:43:52.235Z,99483.12
2019-05-17T22:46:41.631Z,99481.50
2019-05-17T22:49:27.603Z,99481.79
2019-05-17T22:52:13.701Z,99484.61
2019-05-17T22:55:00.006Z,99489.44
2019-05-17T22:57:45.985Z,99475.40
2019-05-17T23:00:32.374Z,99482.98
2019-05-17T23:03:18.475Z,99472.38
2019-05-17T23:06:04.820Z,99476.50
2019-05-17T23:08:51.361Z,99471.73
2019-05-17T23:11:37.502Z,99468.27
2019-05-17T23:14:23.581Z,99468.09
2019-05-17T23:17:09.670Z,99469.23
2019-05-17T23:19:55.872Z,99470.23
2019-05-17T23:22:41.947Z,99462.15
2019-05-17T23:25:28.338Z,99462.65
2019-05-17T23:28:14.596Z,99463.95
2019-05-17T23:31:00.785Z,99461.92
2019-05-17T23:33:51.046Z,99458.33
2019-05-17T23:36:39.351Z,99458.96
2019-05-17T23:39:25.445Z,99462.49
2019-05-17T23:42:11.535Z,99459.35
2019-05-17T23:44:57.901Z,99458.16
2019-05-17T23:47:46.005Z,99456.55
2019-05-17T23:50:32.271Z,99459.23
2019-05-17T23:53:20.381Z,99459.66
2019-05-17T23:56:11.970Z,99452.23
2019-05-17T23:59:05.417Z,99451.04
